sensor_id;sensor_type;location;lat;lon;timestamp;temperature;humidity
64843;DHT22;51310;52.198;5.422;2023-02-26T00:01:11;0.40;74.60
64843;DHT22;51310;52.198;5.422;2023-02-26T00:03:38;0.40;74.60
64843;DHT22;51310;52.198;5.422;2023-02-26T00:06:05;0.30;74.50
64843;DHT22;51310;52.198;5.422;2023-02-26T00:08:31;0.30;74.60
64843;DHT22;51310;52.198;5.422;2023-02-26T00:10:57;0.30;74.50
64843;DHT22;51310;52.198;5.422;2023-02-26T00:13:29;0.30;74.40
64843;DHT22;51310;52.198;5.422;2023-02-26T00:15:59;0.30;74.30
64843;DHT22;51310;52.198;5.422;2023-02-26T00:18:26;0.30;74.10
64843;DHT22;51310;52.198;5.422;2023-02-26T00:20:52;0.30;73.80
64843;DHT22;51310;52.198;5.422;2023-02-26T00:23:19;0.40;73.40
64843;DHT22;51310;52.198;5.422;2023-02-26T00:25:45;0.40;73.50
64843;DHT22;51310;52.198;5.422;2023-02-26T00:28:12;0.50;72.80
64843;DHT22;51310;52.198;5.422;2023-02-26T00:30:38;0.60;72.50
64843;DHT22;51310;52.198;5.422;2023-02-26T00:33:05;0.60;72.50
64843;DHT22;51310;52.198;5.422;2023-02-26T00:35:31;0.60;72.50
64843;DHT22;51310;52.198;5.422;2023-02-26T00:38:03;0.60;72.80
64843;DHT22;51310;52.198;5.422;2023-02-26T00:43:24;0.40;73.60
64843;DHT22;51310;52.198;5.422;2023-02-26T00:51:27;0.30;74.50
64843;DHT22;51310;52.198;5.422;2023-02-26T00:54:12;0.20;75.20
64843;DHT22;51310;52.198;5.422;2023-02-26T00:56:55;0.00;75.80
64843;DHT22;51310;52.198;5.422;2023-02-26T00:59:24;0.00;76.10
64843;DHT22;51310;52.198;5.422;2023-02-26T01:01:51;-0.10;76.40
64843;DHT22;51310;52.198;5.422;2023-02-26T01:04:19;-0.10;76.90
64843;DHT22;51310;52.198;5.422;2023-02-26T01:06:49;0.00;76.80
64843;DHT22;51310;52.198;5.422;2023-02-26T01:12:06;-0.10;77.30
64843;DHT22;51310;52.198;5.422;2023-02-26T01:14:34;-0.10;77.10
64843;DHT22;51310;52.198;5.422;2023-02-26T01:17:11;-0.10;76.90
64843;DHT22;51310;52.198;5.422;2023-02-26T01:22:51;-0.10;76.30
64843;DHT22;51310;52.198;5.422;2023-02-26T01:28:13;-0.10;76.00
64843;DHT22;51310;52.198;5.422;2023-02-26T01:30:39;-0.10;76.10
64843;DHT22;51310;52.198;5.422;2023-02-26T01:33:18;-0.20;76.20
64843;DHT22;51310;52.198;5.422;2023-02-26T01:35:57;-0.20;76.10
64843;DHT22;51310;52.198;5.422;2023-02-26T01:38:44;-0.30;75.90
64843;DHT22;51310;52.198;5.422;2023-02-26T01:41:46;-0.30;75.70
64843;DHT22;51310;52.198;5.422;2023-02-26T01:49:44;-0.50;75.90
64843;DHT22;51310;52.198;5.422;2023-02-26T01:53:14;-0.50;75.70
64843;DHT22;51310;52.198;5.422;2023-02-26T01:55:16;-0.50;75.70
64843;DHT22;51310;52.198;5.422;2023-02-26T01:57:55;-0.60;75.80
64843;DHT22;51310;52.198;5.422;2023-02-26T02:00:22;-0.70;75.50
64843;DHT22;51310;52.198;5.422;2023-02-26T02:02:49;-0.60;75.30
64843;DHT22;51310;52.198;5.422;2023-02-26T02:05:30;-0.60;75.20
64843;DHT22;51310;52.198;5.422;2023-02-26T02:07:59;-0.60;75.20
64843;DHT22;51310;52.198;5.422;2023-02-26T02:10:27;-0.70;75.40
64843;DHT22;51310;52.198;5.422;2023-02-26T02:13:02;-0.80;75.50
64843;DHT22;51310;52.198;5.422;2023-02-26T02:15:44;-0.80;75.20
64843;DHT22;51310;52.198;5.422;2023-02-26T02:21:10;-0.70;74.30
64843;DHT22;51310;52.198;5.422;2023-02-26T02:23:46;-0.70;73.90
64843;DHT22;51310;52.198;5.422;2023-02-26T02:32:07;-0.70;73.20
64843;DHT22;51310;52.198;5.422;2023-02-26T02:34:47;-0.70;73.00
64843;DHT22;51310;52.198;5.422;2023-02-26T02:37:28;-0.70;73.00
64843;DHT22;51310;52.198;5.422;2023-02-26T02:40:05;-0.70;72.80
64843;DHT22;51310;52.198;5.422;2023-02-26T02:42:44;-0.70;72.90
64843;DHT22;51310;52.198;5.422;2023-02-26T02:45:20;-0.80;73.00
64843;DHT22;51310;52.198;5.422;2023-02-26T02:48:21;-0.90;73.20
64843;DHT22;51310;52.198;5.422;2023-02-26T02:50:57;-1.00;73.30
64843;DHT22;51310;52.198;5.422;2023-02-26T02:53:33;-1.00;73.40
64843;DHT22;51310;52.198;5.422;2023-02-26T02:56:09;-1.10;73.40
64843;DHT22;51310;52.198;5.422;2023-02-26T02:58:43;-1.10;73.40
64843;DHT22;51310;52.198;5.422;2023-02-26T03:01:16;-1.10;73.20
64843;DHT22;51310;52.198;5.422;2023-02-26T03:03:55;-1.00;73.20
64843;DHT22;51310;52.198;5.422;2023-02-26T03:06:27;-1.00;73.20
64843;DHT22;51310;52.198;5.422;2023-02-26T03:08:53;-1.00;73.10
64843;DHT22;51310;52.198;5.422;2023-02-26T03:11:20;-1.10;73.40
64843;DHT22;51310;52.198;5.422;2023-02-26T03:13:46;-1.10;73.40
64843;DHT22;51310;52.198;5.422;2023-02-26T03:18:59;-1.10;73.30
64843;DHT22;51310;52.198;5.422;2023-02-26T03:21:43;-1.10;73.40
64843;DHT22;51310;52.198;5.422;2023-02-26T03:24:23;-1.10;73.20
64843;DHT22;51310;52.198;5.422;2023-02-26T03:30:02;-1.10;72.90
64843;DHT22;51310;52.198;5.422;2023-02-26T03:32:42;-1.10;72.80
64843;DHT22;51310;52.198;5.422;2023-02-26T03:35:24;-1.10;72.70
64843;DHT22;51310;52.198;5.422;2023-02-26T03:37:57;-1.10;72.20
64843;DHT22;51310;52.198;5.422;2023-02-26T03:40:41;-1.10;72.40
64843;DHT22;51310;52.198;5.422;2023-02-26T03:43:21;-1.10;72.10
64843;DHT22;51310;52.198;5.422;2023-02-26T03:45:55;-1.10;72.40
64843;DHT22;51310;52.198;5.422;2023-02-26T03:48:28;-1.10;72.20
64843;DHT22;51310;52.198;5.422;2023-02-26T03:51:04;-1.10;72.10
64843;DHT22;51310;52.198;5.422;2023-02-26T03:53:41;-1.10;72.30
64843;DHT22;51310;52.198;5.422;2023-02-26T03:56:29;-1.10;72.60
64843;DHT22;51310;52.198;5.422;2023-02-26T03:58:59;-1.30;72.70
64843;DHT22;51310;52.198;5.422;2023-02-26T04:01:30;-1.30;72.90
64843;DHT22;51310;52.198;5.422;2023-02-26T04:04:14;-1.30;72.90
64843;DHT22;51310;52.198;5.422;2023-02-26T04:06:46;-1.30;73.20
64843;DHT22;51310;52.198;5.422;2023-02-26T04:09:12;-1.40;73.50
64843;DHT22;51310;52.198;5.422;2023-02-26T04:11:38;-1.50;73.60
64843;DHT22;51310;52.198;5.422;2023-02-26T04:14:05;-1.50;74.10
64843;DHT22;51310;52.198;5.422;2023-02-26T04:16:30;-1.50;74.30
64843;DHT22;51310;52.198;5.422;2023-02-26T04:18:56;-1.60;74.40
64843;DHT22;51310;52.198;5.422;2023-02-26T04:21:22;-1.60;74.60
64843;DHT22;51310;52.198;5.422;2023-02-26T04:23:48;-1.70;74.90
64843;DHT22;51310;52.198;5.422;2023-02-26T04:26:14;-1.70;74.90
64843;DHT22;51310;52.198;5.422;2023-02-26T04:28:40;-1.70;75.00
64843;DHT22;51310;52.198;5.422;2023-02-26T04:31:07;-1.80;75.00
64843;DHT22;51310;52.198;5.422;2023-02-26T04:33:34;-1.80;75.10
64843;DHT22;51310;52.198;5.422;2023-02-26T04:36:01;-1.90;75.20
64843;DHT22;51310;52.198;5.422;2023-02-26T04:38:26;-1.90;75.30
64843;DHT22;51310;52.198;5.422;2023-02-26T04:40:52;-2.00;75.10
64843;DHT22;51310;52.198;5.422;2023-02-26T04:43:18;-2.00;75.00
64843;DHT22;51310;52.198;5.422;2023-02-26T04:45:47;-2.00;75.00
64843;DHT22;51310;52.198;5.422;2023-02-26T04:48:14;-1.90;74.90
64843;DHT22;51310;52.198;5.422;2023-02-26T04:50:41;-1.90;74.80
64843;DHT22;51310;52.198;5.422;2023-02-26T04:53:07;-2.00;74.80
64843;DHT22;51310;52.198;5.422;2023-02-26T04:55:34;-2.00;74.90
64843;DHT22;51310;52.198;5.422;2023-02-26T04:58:01;-2.00;74.90
64843;DHT22;51310;52.198;5.422;2023-02-26T05:00:27;-2.00;74.80
64843;DHT22;51310;52.198;5.422;2023-02-26T05:02:53;-2.00;74.80
64843;DHT22;51310;52.198;5.422;2023-02-26T05:05:19;-2.00;74.80
64843;DHT22;51310;52.198;5.422;2023-02-26T05:07:45;-2.10;74.90
64843;DHT22;51310;52.198;5.422;2023-02-26T05:10:11;-2.10;74.80
64843;DHT22;51310;52.198;5.422;2023-02-26T05:12:37;-2.10;75.00
64843;DHT22;51310;52.198;5.422;2023-02-26T05:15:03;-2.10;75.00
64843;DHT22;51310;52.198;5.422;2023-02-26T05:17:30;-2.10;75.20
64843;DHT22;51310;52.198;5.422;2023-02-26T05:19:56;-2.20;75.70
64843;DHT22;51310;52.198;5.422;2023-02-26T05:22:21;-2.20;75.90
64843;DHT22;51310;52.198;5.422;2023-02-26T05:24:47;-2.30;75.80
64843;DHT22;51310;52.198;5.422;2023-02-26T05:27:14;-2.30;76.00
64843;DHT22;51310;52.198;5.422;2023-02-26T05:29:40;-2.30;76.00
64843;DHT22;51310;52.198;5.422;2023-02-26T05:32:09;-2.30;76.10
64843;DHT22;51310;52.198;5.422;2023-02-26T05:34:35;-2.40;76.40
64843;DHT22;51310;52.198;5.422;2023-02-26T05:37:01;-2.40;76.60
64843;DHT22;51310;52.198;5.422;2023-02-26T05:39:28;-2.50;77.10
64843;DHT22;51310;52.198;5.422;2023-02-26T05:41:54;-2.50;77.20
64843;DHT22;51310;52.198;5.422;2023-02-26T05:44:21;-2.50;77.30
64843;DHT22;51310;52.198;5.422;2023-02-26T05:46:48;-2.40;77.20
64843;DHT22;51310;52.198;5.422;2023-02-26T05:49:13;-2.40;77.30
64843;DHT22;51310;52.198;5.422;2023-02-26T05:51:39;-2.40;77.50
64843;DHT22;51310;52.198;5.422;2023-02-26T05:54:07;-2.50;77.70
64843;DHT22;51310;52.198;5.422;2023-02-26T05:56:34;-2.50;78.00
64843;DHT22;51310;52.198;5.422;2023-02-26T05:59:00;-2.60;78.00
64843;DHT22;51310;52.198;5.422;2023-02-26T06:01:26;-2.60;78.40
64843;DHT22;51310;52.198;5.422;2023-02-26T06:03:52;-2.70;78.90
64843;DHT22;51310;52.198;5.422;2023-02-26T06:06:18;-2.70;79.20
64843;DHT22;51310;52.198;5.422;2023-02-26T06:08:44;-2.70;79.70
64843;DHT22;51310;52.198;5.422;2023-02-26T06:11:10;-2.80;80.00
64843;DHT22;51310;52.198;5.422;2023-02-26T06:13:37;-2.80;80.40
64843;DHT22;51310;52.198;5.422;2023-02-26T06:16:03;-2.80;80.60
64843;DHT22;51310;52.198;5.422;2023-02-26T06:18:29;-2.80;81.00
64843;DHT22;51310;52.198;5.422;2023-02-26T06:20:56;-2.80;81.20
64843;DHT22;51310;52.198;5.422;2023-02-26T06:23:22;-2.80;81.40
64843;DHT22;51310;52.198;5.422;2023-02-26T06:25:50;-2.70;81.20
64843;DHT22;51310;52.198;5.422;2023-02-26T06:28:17;-2.70;81.30
64843;DHT22;51310;52.198;5.422;2023-02-26T06:30:43;-2.60;81.20
64843;DHT22;51310;52.198;5.422;2023-02-26T06:33:09;-2.60;81.20
64843;DHT22;51310;52.198;5.422;2023-02-26T06:35:35;-2.50;81.10
64843;DHT22;51310;52.198;5.422;2023-02-26T06:38:01;-2.60;81.40
64843;DHT22;51310;52.198;5.422;2023-02-26T06:40:28;-2.50;81.30
64843;DHT22;51310;52.198;5.422;2023-02-26T06:42:55;-2.50;81.40
64843;DHT22;51310;52.198;5.422;2023-02-26T06:45:22;-2.50;81.40
64843;DHT22;51310;52.198;5.422;2023-02-26T06:47:49;-2.50;81.60
64843;DHT22;51310;52.198;5.422;2023-02-26T06:50:16;-2.50;81.80
64843;DHT22;51310;52.198;5.422;2023-02-26T06:52:42;-2.40;81.80
64843;DHT22;51310;52.198;5.422;2023-02-26T06:55:08;-2.40;81.90
64843;DHT22;51310;52.198;5.422;2023-02-26T06:57:34;-2.40;81.70
64843;DHT22;51310;52.198;5.422;2023-02-26T07:00:00;-2.40;81.70
64843;DHT22;51310;52.198;5.422;2023-02-26T07:02:27;-2.40;81.50
64843;DHT22;51310;52.198;5.422;2023-02-26T07:04:52;-2.40;81.50
64843;DHT22;51310;52.198;5.422;2023-02-26T07:07:18;-2.30;81.40
64843;DHT22;51310;52.198;5.422;2023-02-26T07:09:44;-2.30;81.40
64843;DHT22;51310;52.198;5.422;2023-02-26T07:12:10;-2.30;81.20
64843;DHT22;51310;52.198;5.422;2023-02-26T07:14:35;-2.20;81.10
64843;DHT22;51310;52.198;5.422;2023-02-26T07:17:02;-2.10;80.80
64843;DHT22;51310;52.198;5.422;2023-02-26T07:19:28;-2.10;80.70
64843;DHT22;51310;52.198;5.422;2023-02-26T07:21:54;-2.10;80.70
64843;DHT22;51310;52.198;5.422;2023-02-26T07:24:21;-2.00;80.70
64843;DHT22;51310;52.198;5.422;2023-02-26T07:26:47;-2.00;80.70
64843;DHT22;51310;52.198;5.422;2023-02-26T07:29:13;-1.90;80.80
64843;DHT22;51310;52.198;5.422;2023-02-26T07:31:39;-1.90;80.90
64843;DHT22;51310;52.198;5.422;2023-02-26T07:34:05;-1.80;80.80
64843;DHT22;51310;52.198;5.422;2023-02-26T07:36:31;-1.70;80.70
64843;DHT22;51310;52.198;5.422;2023-02-26T07:38:56;-1.70;80.50
64843;DHT22;51310;52.198;5.422;2023-02-26T07:41:22;-1.60;80.40
64843;DHT22;51310;52.198;5.422;2023-02-26T07:43:48;-1.50;80.20
64843;DHT22;51310;52.198;5.422;2023-02-26T07:46:14;-1.50;80.20
64843;DHT22;51310;52.198;5.422;2023-02-26T07:48:40;-1.50;80.00
64843;DHT22;51310;52.198;5.422;2023-02-26T07:51:06;-1.30;79.60
64843;DHT22;51310;52.198;5.422;2023-02-26T07:53:33;-1.30;79.20
64843;DHT22;51310;52.198;5.422;2023-02-26T07:55:59;-1.10;79.10
64843;DHT22;51310;52.198;5.422;2023-02-26T07:58:25;-1.10;78.90
64843;DHT22;51310;52.198;5.422;2023-02-26T08:00:50;-1.00;78.90
64843;DHT22;51310;52.198;5.422;2023-02-26T08:03:17;-1.00;78.80
64843;DHT22;51310;52.198;5.422;2023-02-26T08:05:44;-0.90;78.40
64843;DHT22;51310;52.198;5.422;2023-02-26T08:08:10;-0.70;78.20
64843;DHT22;51310;52.198;5.422;2023-02-26T08:10:36;-0.60;78.10
64843;DHT22;51310;52.198;5.422;2023-02-26T08:13:02;-0.50;77.20
64843;DHT22;51310;52.198;5.422;2023-02-26T08:15:27;-0.40;76.50
64843;DHT22;51310;52.198;5.422;2023-02-26T08:17:53;-0.20;76.50
64843;DHT22;51310;52.198;5.422;2023-02-26T08:20:19;-0.10;75.80
64843;DHT22;51310;52.198;5.422;2023-02-26T08:22:45;-0.10;75.40
64843;DHT22;51310;52.198;5.422;2023-02-26T08:25:11;0.00;74.70
64843;DHT22;51310;52.198;5.422;2023-02-26T08:27:37;0.00;74.70
64843;DHT22;51310;52.198;5.422;2023-02-26T08:30:04;0.10;73.70
64843;DHT22;51310;52.198;5.422;2023-02-26T08:32:32;0.20;72.90
64843;DHT22;51310;52.198;5.422;2023-02-26T08:34:58;0.30;72.30
64843;DHT22;51310;52.198;5.422;2023-02-26T08:37:24;0.40;70.80
64843;DHT22;51310;52.198;5.422;2023-02-26T08:39:50;0.50;69.00
64843;DHT22;51310;52.198;5.422;2023-02-26T08:42:17;0.50;69.00
64843;DHT22;51310;52.198;5.422;2023-02-26T08:44:45;0.60;68.60
64843;DHT22;51310;52.198;5.422;2023-02-26T08:47:12;0.60;67.30
64843;DHT22;51310;52.198;5.422;2023-02-26T08:49:38;0.60;65.60
64843;DHT22;51310;52.198;5.422;2023-02-26T08:52:04;0.70;65.10
64843;DHT22;51310;52.198;5.422;2023-02-26T08:54:30;0.80;64.10
64843;DHT22;51310;52.198;5.422;2023-02-26T08:56:56;0.80;64.00
64843;DHT22;51310;52.198;5.422;2023-02-26T08:59:23;1.00;61.50
64843;DHT22;51310;52.198;5.422;2023-02-26T09:01:49;1.00;61.20
64843;DHT22;51310;52.198;5.422;2023-02-26T09:04:15;1.00;61.60
64843;DHT22;51310;52.198;5.422;2023-02-26T09:06:42;1.00;60.40
64843;DHT22;51310;52.198;5.422;2023-02-26T09:09:07;1.10;60.20
64843;DHT22;51310;52.198;5.422;2023-02-26T09:11:34;1.10;60.40
64843;DHT22;51310;52.198;5.422;2023-02-26T09:14:02;1.20;60.10
64843;DHT22;51310;52.198;5.422;2023-02-26T09:16:29;1.30;59.80
64843;DHT22;51310;52.198;5.422;2023-02-26T09:18:56;1.30;59.30
64843;DHT22;51310;52.198;5.422;2023-02-26T09:21:22;1.40;59.20
64843;DHT22;51310;52.198;5.422;2023-02-26T09:23:48;1.40;59.70
64843;DHT22;51310;52.198;5.422;2023-02-26T09:26:14;1.50;59.90
64843;DHT22;51310;52.198;5.422;2023-02-26T09:28:40;1.50;59.20
64843;DHT22;51310;52.198;5.422;2023-02-26T09:31:06;1.60;59.60
64843;DHT22;51310;52.198;5.422;2023-02-26T09:33:32;1.60;59.40
64843;DHT22;51310;52.198;5.422;2023-02-26T09:35:58;1.70;59.20
64843;DHT22;51310;52.198;5.422;2023-02-26T09:38:24;1.70;59.60
64843;DHT22;51310;52.198;5.422;2023-02-26T09:51:55;2.00;58.70
64843;DHT22;51310;52.198;5.422;2023-02-26T09:54:40;2.00;57.90
64843;DHT22;51310;52.198;5.422;2023-02-26T09:57:19;2.00;57.30
64843;DHT22;51310;52.198;5.422;2023-02-26T09:59:50;2.10;57.80
64843;DHT22;51310;52.198;5.422;2023-02-26T10:02:26;2.20;58.70
64843;DHT22;51310;52.198;5.422;2023-02-26T10:05:26;2.20;57.50
64843;DHT22;51310;52.198;5.422;2023-02-26T10:08:25;2.30;57.50
64843;DHT22;51310;52.198;5.422;2023-02-26T10:11:12;2.30;56.20
64843;DHT22;51310;52.198;5.422;2023-02-26T10:13:50;2.30;56.10
64843;DHT22;51310;52.198;5.422;2023-02-26T10:16:25;2.30;57.30
64843;DHT22;51310;52.198;5.422;2023-02-26T10:19:04;2.40;57.10
64843;DHT22;51310;52.198;5.422;2023-02-26T10:21:43;2.50;57.00
64843;DHT22;51310;52.198;5.422;2023-02-26T10:24:41;2.50;57.00
64843;DHT22;51310;52.198;5.422;2023-02-26T10:27:19;2.70;56.50
64843;DHT22;51310;52.198;5.422;2023-02-26T10:29:59;2.80;57.00
64843;DHT22;51310;52.198;5.422;2023-02-26T10:32:43;2.90;56.40
64843;DHT22;51310;52.198;5.422;2023-02-26T10:35:17;3.00;54.70
64843;DHT22;51310;52.198;5.422;2023-02-26T10:40:43;3.00;55.10
64843;DHT22;51310;52.198;5.422;2023-02-26T10:49:43;3.00;55.30
64843;DHT22;51310;52.198;5.422;2023-02-26T10:52:23;3.00;55.30
64843;DHT22;51310;52.198;5.422;2023-02-26T10:55:03;2.90;55.00
64843;DHT22;51310;52.198;5.422;2023-02-26T10:57:36;2.80;55.10
64843;DHT22;51310;52.198;5.422;2023-02-26T11:00:09;2.80;56.30
64843;DHT22;51310;52.198;5.422;2023-02-26T11:02:48;2.90;55.30
64843;DHT22;51310;52.198;5.422;2023-02-26T11:05:23;3.00;55.90
64843;DHT22;51310;52.198;5.422;2023-02-26T11:07:57;3.00;55.90
64843;DHT22;51310;52.198;5.422;2023-02-26T11:10:52;3.00;55.70
64843;DHT22;51310;52.198;5.422;2023-02-26T11:13:20;3.10;55.40
64843;DHT22;51310;52.198;5.422;2023-02-26T11:15:49;3.10;54.40
64843;DHT22;51310;52.198;5.422;2023-02-26T11:18:30;3.20;54.90
64843;DHT22;51310;52.198;5.422;2023-02-26T11:21:05;3.30;53.90
64843;DHT22;51310;52.198;5.422;2023-02-26T11:23:32;3.30;55.30
64843;DHT22;51310;52.198;5.422;2023-02-26T11:26:07;3.50;54.30
64843;DHT22;51310;52.198;5.422;2023-02-26T11:28:44;3.40;54.70
64843;DHT22;51310;52.198;5.422;2023-02-26T11:31:16;3.50;54.80
64843;DHT22;51310;52.198;5.422;2023-02-26T11:33:51;3.50;51.90
64843;DHT22;51310;52.198;5.422;2023-02-26T11:36:23;3.50;52.70
64843;DHT22;51310;52.198;5.422;2023-02-26T11:38:56;3.70;53.40
64843;DHT22;51310;52.198;5.422;2023-02-26T11:41:27;3.70;53.60
64843;DHT22;51310;52.198;5.422;2023-02-26T11:44:01;3.70;55.10
64843;DHT22;51310;52.198;5.422;2023-02-26T11:46:39;3.70;54.80
64843;DHT22;51310;52.198;5.422;2023-02-26T11:49:13;3.60;54.80
64843;DHT22;51310;52.198;5.422;2023-02-26T11:51:46;3.70;55.40
64843;DHT22;51310;52.198;5.422;2023-02-26T11:54:23;3.70;55.20
64843;DHT22;51310;52.198;5.422;2023-02-26T11:57:00;3.80;55.20
64843;DHT22;51310;52.198;5.422;2023-02-26T11:59:33;3.80;54.40
64843;DHT22;51310;52.198;5.422;2023-02-26T12:02:20;3.80;54.80
64843;DHT22;51310;52.198;5.422;2023-02-26T12:04:51;3.90;53.90
64843;DHT22;51310;52.198;5.422;2023-02-26T12:07:20;3.80;54.80
64843;DHT22;51310;52.198;5.422;2023-02-26T12:09:47;3.80;56.10
64843;DHT22;51310;52.198;5.422;2023-02-26T12:12:39;3.90;54.60
64843;DHT22;51310;52.198;5.422;2023-02-26T12:15:14;4.00;54.00
64843;DHT22;51310;52.198;5.422;2023-02-26T12:18:08;4.10;54.10
64843;DHT22;51310;52.198;5.422;2023-02-26T12:21:05;4.00;52.50
64843;DHT22;51310;52.198;5.422;2023-02-26T12:26:54;3.90;54.00
64843;DHT22;51310;52.198;5.422;2023-02-26T12:33:09;4.10;53.20
64843;DHT22;51310;52.198;5.422;2023-02-26T12:36:03;4.10;54.10
64843;DHT22;51310;52.198;5.422;2023-02-26T12:42:12;4.20;53.00
64843;DHT22;51310;52.198;5.422;2023-02-26T12:50:59;4.50;51.70
64843;DHT22;51310;52.198;5.422;2023-02-26T12:59:15;4.70;52.70
64843;DHT22;51310;52.198;5.422;2023-02-26T13:17:39;4.90;51.40
64843;DHT22;51310;52.198;5.422;2023-02-26T13:20:16;4.80;52.20
64843;DHT22;51310;52.198;5.422;2023-02-26T13:22:52;4.70;52.00
64843;DHT22;51310;52.198;5.422;2023-02-26T13:25:22;4.70;53.00
64843;DHT22;51310;52.198;5.422;2023-02-26T13:27:58;4.70;52.90
64843;DHT22;51310;52.198;5.422;2023-02-26T13:30:33;4.70;53.30
64843;DHT22;51310;52.198;5.422;2023-02-26T13:33:21;4.70;52.00
64843;DHT22;51310;52.198;5.422;2023-02-26T13:35:52;4.70;52.00
64843;DHT22;51310;52.198;5.422;2023-02-26T13:41:26;4.80;52.70
64843;DHT22;51310;52.198;5.422;2023-02-26T13:52:35;4.90;51.40
64843;DHT22;51310;52.198;5.422;2023-02-26T13:55:03;5.00;50.40
64843;DHT22;51310;52.198;5.422;2023-02-26T13:57:36;4.90;50.00
64843;DHT22;51310;52.198;5.422;2023-02-26T14:00:34;4.90;50.60
64843;DHT22;51310;52.198;5.422;2023-02-26T14:03:28;4.90;51.50
64843;DHT22;51310;52.198;5.422;2023-02-26T14:09:15;5.00;51.90
64843;DHT22;51310;52.198;5.422;2023-02-26T14:14:40;5.00;49.80
64843;DHT22;51310;52.198;5.422;2023-02-26T14:20:22;5.00;49.40
64843;DHT22;51310;52.198;5.422;2023-02-26T14:23:11;5.00;50.00
64843;DHT22;51310;52.198;5.422;2023-02-26T14:25:48;5.00;50.00
64843;DHT22;51310;52.198;5.422;2023-02-26T14:31:13;5.10;50.80
64843;DHT22;51310;52.198;5.422;2023-02-26T14:36:47;5.10;50.50
64843;DHT22;51310;52.198;5.422;2023-02-26T14:41:57;5.10;49.30
64843;DHT22;51310;52.198;5.422;2023-02-26T14:44:29;5.00;50.50
64843;DHT22;51310;52.198;5.422;2023-02-26T14:47:00;5.10;50.80
64843;DHT22;51310;52.198;5.422;2023-02-26T14:49:34;5.00;50.60
64843;DHT22;51310;52.198;5.422;2023-02-26T14:52:25;5.10;51.40
64843;DHT22;51310;52.198;5.422;2023-02-26T15:01:00;5.00;50.20
64843;DHT22;51310;52.198;5.422;2023-02-26T15:03:34;5.00;50.00
64843;DHT22;51310;52.198;5.422;2023-02-26T15:06:39;5.00;51.30
64843;DHT22;51310;52.198;5.422;2023-02-26T15:24:39;5.00;52.70
64843;DHT22;51310;52.198;5.422;2023-02-26T15:27:06;4.90;51.60
64843;DHT22;51310;52.198;5.422;2023-02-26T15:29:40;5.00;51.50
64843;DHT22;51310;52.198;5.422;2023-02-26T15:32:28;5.00;51.80
64843;DHT22;51310;52.198;5.422;2023-02-26T15:35:06;5.00;52.10
64843;DHT22;51310;52.198;5.422;2023-02-26T15:37:46;5.00;52.00
64843;DHT22;51310;52.198;5.422;2023-02-26T15:40:14;5.00;52.10
64843;DHT22;51310;52.198;5.422;2023-02-26T15:42:41;4.90;52.30
64843;DHT22;51310;52.198;5.422;2023-02-26T15:45:17;4.80;52.90
64843;DHT22;51310;52.198;5.422;2023-02-26T15:47:51;4.70;54.30
64843;DHT22;51310;52.198;5.422;2023-02-26T15:50:27;4.70;54.50
64843;DHT22;51310;52.198;5.422;2023-02-26T15:52:58;4.70;54.30
64843;DHT22;51310;52.198;5.422;2023-02-26T15:55:32;4.70;54.00
64843;DHT22;51310;52.198;5.422;2023-02-26T15:58:02;4.70;52.80
64843;DHT22;51310;52.198;5.422;2023-02-26T16:00:33;4.70;54.00
64843;DHT22;51310;52.198;5.422;2023-02-26T16:03:00;4.60;54.90
64843;DHT22;51310;52.198;5.422;2023-02-26T16:05:27;4.50;54.20
64843;DHT22;51310;52.198;5.422;2023-02-26T16:07:54;4.40;54.20
64843;DHT22;51310;52.198;5.422;2023-02-26T16:10:27;4.30;54.70
64843;DHT22;51310;52.198;5.422;2023-02-26T16:12:58;4.10;56.00
64843;DHT22;51310;52.198;5.422;2023-02-26T16:15:33;4.10;56.70
64843;DHT22;51310;52.198;5.422;2023-02-26T16:18:05;4.10;56.90
64843;DHT22;51310;52.198;5.422;2023-02-26T16:20:45;4.10;55.30
64843;DHT22;51310;52.198;5.422;2023-02-26T16:23:16;4.20;54.40
64843;DHT22;51310;52.198;5.422;2023-02-26T16:25:59;4.20;54.10
64843;DHT22;51310;52.198;5.422;2023-02-26T16:28:30;4.30;54.70
64843;DHT22;51310;52.198;5.422;2023-02-26T16:31:02;4.30;54.80
64843;DHT22;51310;52.198;5.422;2023-02-26T16:33:33;4.30;55.00
64843;DHT22;51310;52.198;5.422;2023-02-26T16:36:08;4.30;55.70
64843;DHT22;51310;52.198;5.422;2023-02-26T16:38:48;4.30;56.90
64843;DHT22;51310;52.198;5.422;2023-02-26T16:41:20;4.20;57.80
64843;DHT22;51310;52.198;5.422;2023-02-26T16:43:54;4.10;57.80
64843;DHT22;51310;52.198;5.422;2023-02-26T16:49:21;3.90;57.90
64843;DHT22;51310;52.198;5.422;2023-02-26T16:51:51;3.70;59.00
64843;DHT22;51310;52.198;5.422;2023-02-26T16:54:24;3.60;59.50
64843;DHT22;51310;52.198;5.422;2023-02-26T16:57:12;3.50;59.90
64843;DHT22;51310;52.198;5.422;2023-02-26T16:59:50;3.40;60.60
64843;DHT22;51310;52.198;5.422;2023-02-26T17:02:25;3.30;61.20
64843;DHT22;51310;52.198;5.422;2023-02-26T17:05:02;3.30;61.30
64843;DHT22;51310;52.198;5.422;2023-02-26T17:07:35;3.20;61.70
64843;DHT22;51310;52.198;5.422;2023-02-26T17:10:22;3.10;61.80
64843;DHT22;51310;52.198;5.422;2023-02-26T17:13:16;3.10;62.10
64843;DHT22;51310;52.198;5.422;2023-02-26T17:15:46;3.00;62.60
64843;DHT22;51310;52.198;5.422;2023-02-26T17:18:13;2.90;62.80
64843;DHT22;51310;52.198;5.422;2023-02-26T17:20:39;2.90;63.20
64843;DHT22;51310;52.198;5.422;2023-02-26T17:23:06;2.80;63.20
64843;DHT22;51310;52.198;5.422;2023-02-26T17:25:40;2.80;63.30
64843;DHT22;51310;52.198;5.422;2023-02-26T17:28:11;2.70;63.70
64843;DHT22;51310;52.198;5.422;2023-02-26T17:30:41;2.70;63.60
64843;DHT22;51310;52.198;5.422;2023-02-26T17:33:11;2.50;64.10
64843;DHT22;51310;52.198;5.422;2023-02-26T17:35:38;2.50;64.00
64843;DHT22;51310;52.198;5.422;2023-02-26T17:38:04;2.50;64.30
64843;DHT22;51310;52.198;5.422;2023-02-26T17:40:34;2.50;64.40
64843;DHT22;51310;52.198;5.422;2023-02-26T17:43:04;2.40;64.40
64843;DHT22;51310;52.198;5.422;2023-02-26T17:45:31;2.40;64.70
64843;DHT22;51310;52.198;5.422;2023-02-26T17:47:58;2.30;64.80
64843;DHT22;51310;52.198;5.422;2023-02-26T17:53:15;2.20;65.40
64843;DHT22;51310;52.198;5.422;2023-02-26T17:55:46;2.20;65.70
64843;DHT22;51310;52.198;5.422;2023-02-26T17:58:16;2.10;66.40
64843;DHT22;51310;52.198;5.422;2023-02-26T18:00:45;2.00;66.90
64843;DHT22;51310;52.198;5.422;2023-02-26T18:03:14;1.90;67.40
64843;DHT22;51310;52.198;5.422;2023-02-26T18:05:40;1.80;67.90
64843;DHT22;51310;52.198;5.422;2023-02-26T18:08:23;1.70;68.20
64843;DHT22;51310;52.198;5.422;2023-02-26T18:10:51;1.70;68.60
64843;DHT22;51310;52.198;5.422;2023-02-26T18:13:17;1.60;69.20
64843;DHT22;51310;52.198;5.422;2023-02-26T18:15:44;1.50;69.40
64843;DHT22;51310;52.198;5.422;2023-02-26T18:18:11;1.50;69.50
64843;DHT22;51310;52.198;5.422;2023-02-26T18:20:39;1.40;69.80
64843;DHT22;51310;52.198;5.422;2023-02-26T18:23:05;1.40;70.10
64843;DHT22;51310;52.198;5.422;2023-02-26T18:25:32;1.40;70.30
64843;DHT22;51310;52.198;5.422;2023-02-26T18:28:02;1.40;70.30
64843;DHT22;51310;52.198;5.422;2023-02-26T18:30:32;1.30;70.60
64843;DHT22;51310;52.198;5.422;2023-02-26T18:33:00;1.20;70.90
64843;DHT22;51310;52.198;5.422;2023-02-26T18:35:28;1.20;71.20
64843;DHT22;51310;52.198;5.422;2023-02-26T18:37:55;1.10;71.80
64843;DHT22;51310;52.198;5.422;2023-02-26T18:40:23;1.10;72.10